createdAt,value
2022-11-10T00:00:38.718Z,95321.28
2022-11-10T00:04:07.393Z,95322.47
2022-11-10T00:07:35.428Z,95323.25
2022-11-10T00:11:07.014Z,95324.25
2022-11-10T00:14:51.373Z,95325.03
2022-11-10T00:18:18.041Z,95329.31
2022-11-10T00:21:44.841Z,95333.63
2022-11-10T00:25:13.518Z,95327.41
2022-11-10T00:28:40.123Z,95333.75
2022-11-10T00:32:07.003Z,95333.75
2022-11-10T00:35:33.590Z,95335.53
2022-11-10T00:39:00.322Z,95337.22
2022-11-10T00:42:28.908Z,95339.06
2022-11-10T00:45:56.289Z,95336.22
2022-11-10T00:49:23.221Z,95348.06
2022-11-10T00:52:49.915Z,95357.44
2022-11-10T00:56:16.614Z,95359.47
2022-11-10T00:59:44.494Z,95360.47
2022-11-10T01:03:16.132Z,95364.69
2022-11-10T01:06:42.760Z,95366.91
2022-11-10T01:10:11.002Z,95376.63
2022-11-10T01:13:38.408Z,95379.50
2022-11-10T01:17:06.487Z,95369.56
2022-11-10T01:20:35.533Z,95375.25
2022-11-10T01:24:02.811Z,95384.31
2022-11-10T01:27:29.736Z,95391.81
2022-11-10T01:30:59.035Z,95391.03
2022-11-10T01:34:27.010Z,95391.47
2022-11-10T01:37:53.833Z,95388.69
2022-11-10T01:41:20.614Z,95392.22
2022-11-10T01:46:00.423Z,95395.25
2022-11-10T01:49:32.333Z,95396.28
2022-11-10T01:53:04.521Z,95397.72
2022-11-10T01:56:40.265Z,95401.47
2022-11-10T02:00:09.531Z,95405.28
2022-11-10T02:03:44.765Z,95400.56
2022-11-10T02:07:13.335Z,95409.38
2022-11-10T02:10:40.414Z,95412.63
2022-11-10T02:14:07.582Z,95411.44
2022-11-10T02:17:34.687Z,95409.13
2022-11-10T02:21:05.720Z,95413.09
2022-11-10T02:24:33.616Z,95399.47
2022-11-10T02:28:00.457Z,95415.53
2022-11-10T02:31:27.479Z,95415.00
2022-11-10T02:34:54.298Z,95415.19
2022-11-10T02:38:22.606Z,95414.59
2022-11-10T02:41:49.636Z,95409.22
2022-11-10T02:45:16.544Z,95409.69
2022-11-10T02:48:43.369Z,95422.78
2022-11-10T02:52:11.196Z,95422.09
2022-11-10T02:55:39.499Z,95427.59
2022-11-10T02:59:06.178Z,95433.09
2022-11-10T03:02:33.226Z,95430.31
2022-11-10T03:05:59.761Z,95431.78
2022-11-10T03:09:26.293Z,95442.97
2022-11-10T03:12:57.391Z,95450.13
2022-11-10T03:16:24.184Z,95455.44
2022-11-10T03:19:51.140Z,95457.56
2022-11-10T03:23:19.095Z,95470.75
2022-11-10T03:26:45.871Z,95476.00
2022-11-10T03:30:14.461Z,95484.63
2022-11-10T03:33:41.172Z,95491.88
2022-11-10T03:37:08.615Z,95516.94
2022-11-10T03:40:56.982Z,95520.75
2022-11-10T03:44:22.545Z,95528.38
2022-11-10T03:47:51.136Z,95539.31
2022-11-10T03:51:18.061Z,95552.16
2022-11-10T03:54:44.725Z,95558.84
2022-11-10T03:58:11.534Z,95561.84
2022-11-10T04:01:38.547Z,95565.88
2022-11-10T04:05:26.168Z,95569.31
2022-11-10T04:09:02.235Z,95581.81
2022-11-10T04:12:46.658Z,95578.50
2022-11-10T04:16:14.251Z,95581.81
2022-11-10T04:19:41.057Z,95587.56
2022-11-10T04:23:26.687Z,95584.59
2022-11-10T04:26:53.535Z,95595.53
2022-11-10T04:30:20.185Z,95587.47
2022-11-10T04:33:48.169Z,95588.91
2022-11-10T04:37:15.080Z,95595.03
2022-11-10T04:40:43.255Z,95593.66
2022-11-10T04:44:10.057Z,95598.09
2022-11-10T04:47:36.837Z,95595.94
2022-11-10T04:51:06.414Z,95600.25
2022-11-10T04:58:11.662Z,95613.81
2022-11-10T05:01:38.547Z,95621.06
2022-11-10T05:05:06.896Z,95632.38
2022-11-10T05:08:33.994Z,95631.00
2022-11-10T05:12:01.016Z,95625.41
2022-11-10T05:15:29.727Z,95636.69
2022-11-10T05:18:58.231Z,95636.03
2022-11-10T05:22:25.448Z,95647.31
2022-11-10T05:25:52.334Z,95650.19
2022-11-10T05:29:19.507Z,95654.13
2022-11-10T05:32:47.978Z,95663.03
2022-11-10T05:36:14.614Z,95654.84
2022-11-10T05:39:41.228Z,95672.56
2022-11-10T05:43:08.126Z,95684.94
2022-11-10T05:46:35.268Z,95683.59
2022-11-10T05:50:04.675Z,95688.97
2022-11-10T05:53:31.852Z,95697.22
2022-11-10T05:56:58.535Z,95701.25
2022-11-10T06:00:28.259Z,95706.81
2022-11-10T06:03:55.228Z,95716.78
2022-11-10T06:07:23.628Z,95729.41
2022-11-10T06:10:50.840Z,95727.78
2022-11-10T06:14:17.725Z,95729.09
2022-11-10T06:17:45.258Z,95741.84
2022-11-10T06:21:12.327Z,95741.72
2022-11-10T06:24:40.887Z,95756.00
2022-11-10T06:28:09.073Z,95772.44
2022-11-10T06:31:35.874Z,95783.22
2022-11-10T06:35:02.560Z,95781.47
2022-11-10T06:38:29.293Z,95793.63
2022-11-10T06:41:57.377Z,95810.59
2022-11-10T06:45:28.225Z,95818.56
2022-11-10T06:48:54.861Z,95835.59
2022-11-10T06:52:22.075Z,95828.84
2022-11-10T06:55:48.869Z,95827.66
2022-11-10T06:59:17.026Z,95830.66
2022-11-10T07:03:00.800Z,95838.16
2022-11-10T07:06:27.841Z,95844.66
2022-11-10T07:09:54.580Z,95853.25
2022-11-10T07:13:22.706Z,95851.97
2022-11-10T07:16:50.944Z,95857.25
2022-11-10T07:20:17.664Z,95863.56
2022-11-10T07:23:44.090Z,95870.97
2022-11-10T07:27:11.196Z,95874.19
2022-11-10T07:30:38.211Z,95877.66
2022-11-10T07:34:06.545Z,95877.56
2022-11-10T07:37:32.965Z,95887.69
2022-11-10T07:40:59.546Z,95891.19
2022-11-10T07:44:27.688Z,95901.13
2022-11-10T07:48:00.494Z,95903.25
2022-11-10T07:51:28.756Z,95912.66
2022-11-10T07:54:55.417Z,95911.25
2022-11-10T07:58:22.065Z,95912.09
2022-11-10T08:01:48.907Z,95926.91
2022-11-10T08:05:15.530Z,95922.78
2022-11-10T08:08:44.024Z,95917.63
2022-11-10T08:12:11.278Z,95932.63
2022-11-10T08:15:38.957Z,95938.53
2022-11-10T08:19:05.984Z,95938.31
2022-11-10T08:22:33.051Z,95935.44
2022-11-10T08:26:02.333Z,95949.16
2022-11-10T08:29:29.529Z,95945.94
2022-11-10T08:32:58.446Z,95951.19
2022-11-10T08:36:25.471Z,95944.69
2022-11-10T08:39:51.945Z,95940.31
2022-11-10T08:43:20.372Z,95950.78
2022-11-10T08:46:47.597Z,95959.59
2022-11-10T08:50:14.105Z,95964.53
2022-11-10T08:53:40.499Z,95971.25
2022-11-10T08:57:07.472Z,95979.84
2022-11-10T09:00:36.444Z,95983.69
2022-11-10T09:04:03.073Z,95987.84
2022-11-10T09:07:29.832Z,96002.41
2022-11-10T09:11:04.524Z,95999.63
2022-11-10T09:14:31.554Z,95996.22
2022-11-10T09:18:00.777Z,95995.56
2022-11-10T09:21:27.456Z,96000.91
2022-11-10T09:24:54.416Z,95998.47
2022-11-10T09:28:23.837Z,96016.47
2022-11-10T09:31:50.882Z,96016.88
2022-11-10T09:35:19.482Z,96035.75
2022-11-10T09:38:47.312Z,96040.44
2022-11-10T09:42:32.782Z,96040.50
2022-11-10T09:46:04.689Z,96046.72
2022-11-10T09:49:45.562Z,96044.72
2022-11-10T09:53:20.605Z,96045.63
2022-11-10T09:56:47.384Z,96058.25
2022-11-10T10:00:16.702Z,96053.38
2022-11-10T10:03:52.527Z,96054.31
2022-11-10T10:07:26.088Z,96051.22
2022-11-10T10:11:10.405Z,96048.16
2022-11-10T10:15:03.451Z,96060.31
2022-11-10T10:18:41.939Z,96059.50
2022-11-10T10:22:32.618Z,96061.38
2022-11-10T10:26:01.675Z,96066.91
2022-11-10T10:29:37.626Z,96076.34
2022-11-10T10:33:17.131Z,96087.13
2022-11-10T10:36:45.384Z,96085.19
2022-11-10T10:40:18.383Z,96090.50
2022-11-10T10:43:51.127Z,96084.56
2022-11-10T10:47:17.856Z,96063.91
2022-11-10T10:50:46.324Z,96065.72
2022-11-10T10:54:29.105Z,96075.31
2022-11-10T10:58:02.130Z,96078.78
2022-11-10T11:01:33.500Z,96084.13
2022-11-10T11:05:17.687Z,96083.03
2022-11-10T11:09:00.820Z,96079.31
2022-11-10T11:12:31.528Z,96079.41
2022-11-10T11:16:00.481Z,96076.34
2022-11-10T11:19:33.664Z,96074.06
2022-11-10T11:23:18.188Z,96081.53
2022-11-10T11:27:00.601Z,96081.06
2022-11-10T11:30:39.466Z,96089.53
2022-11-10T11:34:21.067Z,96092.84
2022-11-10T11:38:08.646Z,96089.03
2022-11-10T11:41:47.838Z,96087.19
2022-11-10T11:45:27.878Z,96091.38
2022-11-10T11:49:31.990Z,96086.78
2022-11-10T11:53:15.708Z,96094.66
2022-11-10T11:56:47.913Z,96094.88
2022-11-10T12:04:40.308Z,96097.41
2022-11-10T12:08:26.696Z,96090.59
2022-11-10T12:12:15.456Z,96077.22
2022-11-10T12:16:00.259Z,96089.25
2022-11-10T12:19:36.387Z,96095.34
2022-11-10T12:23:17.023Z,96082.06
2022-11-10T12:26:55.529Z,96075.81
2022-11-10T12:30:22.597Z,96079.91
2022-11-10T12:33:57.120Z,96074.66
2022-11-10T12:37:34.369Z,96081.84
2022-11-10T12:41:10.567Z,96088.91
2022-11-10T12:44:44.112Z,96081.34
2022-11-10T12:48:13.445Z,96076.56
2022-11-10T12:51:52.275Z,96077.78
2022-11-10T12:55:22.305Z,96076.09
2022-11-10T12:59:37.510Z,96072.59
2022-11-10T13:03:05.011Z,96065.06
2022-11-10T13:06:36.634Z,96079.97
2022-11-10T13:10:24.023Z,96073.81
2022-11-10T13:13:59.923Z,96073.06
2022-11-10T13:17:59.350Z,96077.66
2022-11-10T13:22:05.375Z,96081.16
2022-11-10T13:26:02.040Z,96080.25
2022-11-10T13:29:56.957Z,96080.16
2022-11-10T13:33:38.993Z,96086.41
2022-11-10T13:37:46.423Z,96087.47
2022-11-10T13:41:27.012Z,96086.72
2022-11-10T13:45:15.532Z,96088.97
2022-11-10T13:49:28.578Z,96091.31
2022-11-10T13:53:18.304Z,96084.94
2022-11-10T13:57:11.671Z,96086.03
2022-11-10T14:00:39.879Z,96085.13
2022-11-10T14:04:06.729Z,96087.53
2022-11-10T14:07:43.470Z,96078.00
2022-11-10T14:11:35.201Z,96081.69
2022-11-10T14:15:06.449Z,96082.72
2022-11-10T14:18:43.832Z,96082.19
2022-11-10T14:22:23.807Z,96098.06
2022-11-10T14:26:00.100Z,96102.34
2022-11-10T14:29:38.384Z,96100.53
2022-11-10T14:33:11.013Z,96102.44
2022-11-10T14:36:53.304Z,96101.25
2022-11-10T14:40:21.940Z,96114.22
2022-11-10T14:44:02.345Z,96114.59
2022-11-10T14:47:31.832Z,96116.53
2022-11-10T14:51:06.765Z,96114.44
2022-11-10T14:54:36.500Z,96114.03
2022-11-10T14:58:13.498Z,96114.78
2022-11-10T15:01:49.232Z,96123.31
2022-11-10T15:05:16.706Z,96126.34
2022-11-10T15:08:43.543Z,96133.78
2022-11-10T15:12:28.589Z,96122.72
2022-11-10T15:16:22.843Z,96126.41
2022-11-10T15:19:56.340Z,96129.91
2022-11-10T15:23:33.632Z,96128.50
2022-11-10T15:27:01.439Z,96113.88
2022-11-10T15:30:31.823Z,96122.56
2022-11-10T15:34:01.619Z,96117.00
2022-11-10T15:37:31.548Z,96121.81
2022-11-10T15:41:15.436Z,96127.50
2022-11-10T15:44:46.752Z,96134.16
2022-11-10T15:48:18.011Z,96141.50
2022-11-10T15:51:44.776Z,96137.63
2022-11-10T15:55:21.361Z,96147.09
2022-11-10T15:58:51.464Z,96147.56
2022-11-10T16:02:23.455Z,96157.50
2022-11-10T16:05:51.744Z,96160.13
2022-11-10T16:09:18.350Z,96176.19
2022-11-10T16:12:45.182Z,96182.09
2022-11-10T16:16:16.462Z,96175.91
2022-11-10T16:19:42.937Z,96183.41
2022-11-10T16:23:11.217Z,96189.97
2022-11-10T16:26:38.923Z,96197.03
2022-11-10T16:30:14.157Z,96206.22
2022-11-10T16:33:41.762Z,96211.78
2022-11-10T16:37:11.939Z,96219.53
2022-11-10T16:40:40.270Z,96226.94
2022-11-10T16:44:11.412Z,96236.63
2022-11-10T16:47:38.223Z,96240.25
2022-11-10T16:51:05.852Z,96246.31
2022-11-10T16:54:32.960Z,96253.41
2022-11-10T16:58:01.132Z,96264.47
2022-11-10T17:01:30.865Z,96272.25
2022-11-10T17:04:58.026Z,96280.38
2022-11-10T17:08:28.789Z,96280.38
2022-11-10T17:11:55.820Z,96287.81
2022-11-10T17:15:24.294Z,96297.59
2022-11-10T17:18:52.481Z,96301.97
2022-11-10T17:22:22.728Z,96299.66
2022-11-10T17:25:54.040Z,96309.19
2022-11-10T17:29:24.169Z,96320.97
2022-11-10T17:33:09.550Z,96319.88
2022-11-10T17:36:36.748Z,96328.09
2022-11-10T17:40:17.873Z,96324.63
2022-11-10T17:43:46.129Z,96318.13
2022-11-10T17:47:13.782Z,96314.34
2022-11-10T17:50:46.772Z,96310.19
2022-11-10T17:54:16.544Z,96318.94
2022-11-10T17:57:43.348Z,96319.22
2022-11-10T18:01:17.868Z,96333.31
2022-11-10T18:04:44.644Z,96320.50
2022-11-10T18:08:15.378Z,96332.59
2022-11-10T18:11:41.939Z,96332.75
2022-11-10T18:15:13.203Z,96334.69
2022-11-10T18:18:40.224Z,96342.38
2022-11-10T18:22:07.359Z,96352.53
2022-11-10T18:25:35.603Z,96365.03
2022-11-10T18:29:03.814Z,96356.50
2022-11-10T18:32:30.856Z,96369.44
2022-11-10T18:36:00.422Z,96385.16
2022-11-10T18:39:27.532Z,96383.44
2022-11-10T18:43:05.972Z,96371.91
2022-11-10T18:46:34.328Z,96370.78
2022-11-10T18:50:00.996Z,96364.91
2022-11-10T18:53:27.799Z,96359.22
2022-11-10T18:56:54.842Z,96360.47
2022-11-10T19:00:23.306Z,96359.91
2022-11-10T19:03:50.734Z,96343.22
2022-11-10T19:07:17.991Z,96344.78
2022-11-10T19:10:44.701Z,96341.13
2022-11-10T19:14:11.516Z,96345.31
2022-11-10T19:17:39.963Z,96344.06
2022-11-10T19:21:08.298Z,96351.03
2022-11-10T19:24:53.600Z,96348.22
2022-11-10T19:28:23.193Z,96360.47
2022-11-10T19:31:50.480Z,96366.72
2022-11-10T19:35:19.065Z,96366.25
2022-11-10T19:38:46.772Z,96365.16
2022-11-10T19:42:13.998Z,96363.34
2022-11-10T19:45:42.178Z,96365.28
2022-11-10T19:49:08.938Z,96365.75
2022-11-10T19:52:37.291Z,96355.97
2022-11-10T19:56:07.486Z,96357.91
2022-11-10T19:59:34.675Z,96372.09
2022-11-10T20:03:01.386Z,96364.97
2022-11-10T20:06:28.703Z,96370.78
2022-11-10T20:09:57.003Z,96373.72
2022-11-10T20:13:25.545Z,96383.25
2022-11-10T20:16:52.578Z,96373.63
2022-11-10T20:20:20.333Z,96383.03
2022-11-10T20:23:52.384Z,96382.72
2022-11-10T20:27:21.942Z,96389.81
2022-11-10T20:30:49.083Z,96388.53
2022-11-10T20:34:16.355Z,96389.75
2022-11-10T20:37:44.048Z,96378.22
2022-11-10T20:41:16.396Z,96383.44
2022-11-10T20:44:44.524Z,96394.81
2022-11-10T20:48:11.324Z,96381.63
2022-11-10T20:51:38.673Z,96387.19
2022-11-10T20:55:06.891Z,96385.00
2022-11-10T20:58:34.549Z,96390.06
2022-11-10T21:02:02.913Z,96390.06
2022-11-10T21:05:29.658Z,96394.78
2022-11-10T21:08:56.973Z,96396.63
2022-11-10T21:12:40.872Z,96400.44
2022-11-10T21:16:08.618Z,96395.16
2022-11-10T21:19:37.243Z,96400.50
2022-11-10T21:23:04.318Z,96396.19
2022-11-10T21:26:31.680Z,96401.84
2022-11-10T21:29:58.963Z,96405.22
2022-11-10T21:33:25.889Z,96405.09
2022-11-10T21:36:53.971Z,96408.25
2022-11-10T21:40:21.112Z,96409.72
2022-11-10T21:43:47.857Z,96404.56
2022-11-10T21:47:15.276Z,96406.16
2022-11-10T21:50:42.101Z,96400.56
2022-11-10T21:54:12.248Z,96409.63
2022-11-10T21:57:39.101Z,96412.34
2022-11-10T22:01:09.164Z,96412.16
2022-11-10T22:04:36.137Z,96398.75
2022-11-10T22:08:04.335Z,96406.53
2022-11-10T22:11:49.922Z,96399.72
2022-11-10T22:15:34.479Z,96399.50
2022-11-10T22:19:02.230Z,96400.69
2022-11-10T22:22:29.289Z,96411.94
2022-11-10T22:25:56.122Z,96401.41
2022-11-10T22:29:31.214Z,96404.91
2022-11-10T22:33:18.965Z,96400.75
2022-11-10T22:36:46.878Z,96406.25
2022-11-10T22:40:32.368Z,96405.06
2022-11-10T22:44:09.169Z,96406.75
2022-11-10T22:47:57.445Z,96412.59
2022-11-10T22:51:24.702Z,96413.09
2022-11-10T22:54:52.004Z,96415.84
2022-11-10T22:58:18.816Z,96407.94
2022-11-10T23:01:49.100Z,96402.94
2022-11-10T23:05:17.541Z,96402.56
2022-11-10T23:08:45.272Z,96407.94
2022-11-10T23:12:12.233Z,96410.22
2022-11-10T23:15:38.997Z,96399.34
2022-11-10T23:19:05.719Z,96397.94
2022-11-10T23:22:34.300Z,96399.59
2022-11-10T23:26:03.596Z,96396.25
2022-11-10T23:29:30.185Z,96406.41
2022-11-10T23:32:57.086Z,96413.25
2022-11-10T23:36:26.594Z,96412.91
2022-11-10T23:39:55.087Z,96411.44
2022-11-10T23:43:22.099Z,96409.88
2022-11-10T23:46:49.206Z,96396.88
2022-11-10T23:50:16.003Z,96396.88
2022-11-10T23:53:44.949Z,96391.72
2022-11-10T23:57:13.980Z,96392.91
